Time;durP1;ratioP1;P1;durP2;ratioP2;P2;SDS_P1;SDS_P2;PMS_P1;PMS_P2;Temp;Humidity;BMP_temperature;BMP_pressure;BME280_temperature;BME280_humidity;BME280_pressure;Samples;Min_cycle;Max_cycle;Signal;HPM_P1;HPM_P2
2023/01/08 00:00:11;;;;;;;7.15;3.65;;;;;;;6.16;97.87;97785.78;4227896;27;20107;-72
2023/01/08 00:02:11;;;;;;;6.38;4.10;;;;;;;6.12;98.17;97789.63;4225152;27;20130;-72
2023/01/08 00:04:11;;;;;;;5.75;3.90;;;;;;;6.03;98.68;97794.56;4225664;27;20035;-72
2023/01/08 00:06:15;;;;;;;5.38;4.07;;;;;;;5.99;99.08;97783.53;4226726;27;20145;-72
2023/01/08 00:08:15;;;;;;;6.50;4.35;;;;;;;6.10;99.13;97790.00;4225137;27;20050;-72
2023/01/08 00:10:16;;;;;;;9.82;4.95;;;;;;;6.12;98.70;97779.47;4225079;27;20031;-72
2023/01/08 00:12:16;;;;;;;6.85;4.60;;;;;;;6.06;98.07;97772.69;4221492;27;20135;-72
2023/01/08 00:14:16;;;;;;;6.47;4.90;;;;;;;6.00;98.30;97762.34;4227557;27;20388;-72
2023/01/08 00:16:18;;;;;;;6.72;4.65;;;;;;;6.11;98.95;97768.81;4225994;27;20023;-72
2023/01/08 00:18:19;;;;;;;5.22;4.07;;;;;;;6.00;98.18;97765.88;4225628;27;20187;-72
2023/01/08 00:20:19;;;;;;;6.35;4.70;;;;;;;5.97;98.43;97761.13;4224658;27;20122;-72
2023/01/08 00:22:20;;;;;;;6.45;4.35;;;;;;;5.96;98.82;97766.97;4224740;27;20845;-73
2023/01/08 00:24:20;;;;;;;4.88;4.07;;;;;;;5.92;98.94;97755.94;4224553;27;20503;-72
2023/01/08 00:26:20;;;;;;;6.18;4.38;;;;;;;5.96;99.52;97753.25;4226977;27;20464;-72
2023/01/08 00:28:21;;;;;;;6.88;4.40;;;;;;;5.90;97.90;97745.31;4223888;27;20123;-72
2023/01/08 00:30:22;;;;;;;6.03;4.30;;;;;;;6.09;98.90;97749.16;4227274;27;20616;-72
2023/01/08 00:32:22;;;;;;;5.88;4.30;;;;;;;6.11;98.04;97753.13;4228384;27;20537;-72
2023/01/08 00:34:22;;;;;;;6.18;4.10;;;;;;;6.08;97.99;97742.09;4220991;27;20380;-72
2023/01/08 00:36:23;;;;;;;7.05;4.45;;;;;;;6.19;96.83;97748.56;4226610;27;20053;-73
2023/01/08 00:38:27;;;;;;;7.05;5.25;;;;;;;6.14;97.52;97746.91;4221795;27;20380;-72
2023/01/08 00:40:27;;;;;;;4.88;4.05;;;;;;;6.14;97.00;97751.63;4228323;27;20043;-72
2023/01/08 00:42:28;;;;;;;6.30;4.60;;;;;;;6.11;96.83;97750.38;4229993;27;20548;-72
2023/01/08 00:44:28;;;;;;;5.95;4.55;;;;;;;6.16;97.72;97754.78;4229789;27;20780;-72
2023/01/08 00:46:28;;;;;;;6.18;4.60;;;;;;;6.16;97.72;97763.03;4234678;27;20053;-72
2023/01/08 00:48:30;;;;;;;5.75;4.30;;;;;;;6.15;97.21;97756.75;4236528;27;20126;-72
2023/01/08 00:50:30;;;;;;;6.18;4.32;;;;;;;6.16;96.91;97771.28;4223132;27;20203;-72
2023/01/08 00:52:30;;;;;;;6.22;4.20;;;;;;;6.17;97.53;97759.91;4220494;27;20046;-72
2023/01/08 00:54:31;;;;;;;6.05;4.40;;;;;;;6.23;97.85;97770.59;4220910;27;20329;-72
2023/01/08 00:56:31;;;;;;;5.85;4.07;;;;;;;6.24;96.65;97744.72;4220765;27;20036;-72
2023/01/08 00:58:33;;;;;;;7.22;5.40;;;;;;;6.36;96.51;97750.00;4220923;27;20390;-72
2023/01/08 01:00:33;;;;;;;8.98;5.03;;;;;;;6.40;96.00;97759.91;4228624;27;20360;-72
2023/01/08 01:02:35;;;;;;;6.57;4.47;;;;;;;6.38;96.38;97773.22;4226102;27;20031;-72
2023/01/08 01:04:35;;;;;;;9.27;4.60;;;;;;;6.33;96.37;97765.28;4226561;27;20035;-72
2023/01/08 01:06:36;;;;;;;6.28;4.90;;;;;;;6.31;96.20;97770.34;4220769;27;20040;-72
2023/01/08 01:08:37;;;;;;;7.40;4.85;;;;;;;6.32;96.94;97771.16;4220944;27;20071;-72
2023/01/08 01:10:38;;;;;;;5.47;4.03;;;;;;;6.38;97.50;97766.94;4224384;27;20055;-72
2023/01/08 01:12:38;;;;;;;7.50;4.32;;;;;;;6.38;96.97;97777.94;4219996;27;20862;-72
2023/01/08 01:14:39;;;;;;;5.38;4.07;;;;;;;6.31;96.91;97770.34;4220432;27;20433;-72
2023/01/08 01:16:40;;;;;;;5.85;4.20;;;;;;;6.28;96.67;97765.59;4220766;27;20096;-72
2023/01/08 01:18:41;;;;;;;6.45;4.28;;;;;;;6.42;97.27;97767.78;4220413;27;20039;-72
2023/01/08 01:20:41;;;;;;;7.40;4.75;;;;;;;6.37;96.93;97763.41;4232617;27;20038;-73
2023/01/08 01:22:42;;;;;;;4.97;3.65;;;;;;;6.41;97.28;97756.00;4235415;27;20498;-72
2023/01/08 01:24:43;;;;;;;6.05;4.30;;;;;;;6.45;97.09;97753.28;4218919;27;20051;-72
2023/01/08 01:26:44;;;;;;;5.85;4.35;;;;;;;6.43;96.23;97763.88;4220569;27;20051;-72
2023/01/08 01:28:50;;;;;;;5.78;3.97;;;;;;;6.43;96.55;97755.63;4220323;27;20044;-72
2023/01/08 01:30:55;;;;;;;7.68;4.18;;;;;;;6.41;96.77;97755.22;4227096;27;20062;-72
2023/01/08 01:32:55;;;;;;;6.60;4.30;;;;;;;6.48;96.13;97761.63;4223906;27;20041;-72
2023/01/08 01:34:56;;;;;;;9.00;4.32;;;;;;;6.48;96.27;97764.34;4232755;27;20046;-72
2023/01/08 01:36:56;;;;;;;5.30;3.90;;;;;;;6.46;96.01;97750.19;4234218;27;20134;-72
2023/01/08 01:39:01;;;;;;;6.45;4.25;;;;;;;6.42;96.41;97732.84;4226211;27;20100;-72
2023/01/08 01:41:01;;;;;;;5.72;4.25;;;;;;;6.45;97.06;97726.63;4220105;27;20040;-72
2023/01/08 01:43:02;;;;;;;6.93;3.88;;;;;;;6.44;96.76;97727.78;4228591;27;20039;-72
2023/01/08 01:45:12;;;;;;;5.70;4.30;;;;;;;6.46;96.68;97728.22;4233172;27;20103;-72
2023/01/08 01:47:27;;;;;;;5.82;4.40;;;;;;;6.51;95.65;97746.34;4219788;27;20074;-72
2023/01/08 01:49:28;;;;;;;6.40;4.43;;;;;;;6.52;95.05;97752.63;4222628;27;20090;-73
2023/01/08 01:51:32;;;;;;;5.03;4.15;;;;;;;6.53;94.77;97741.25;4234349;27;20047;-72
2023/01/08 01:53:34;;;;;;;5.97;4.50;;;;;;;6.52;94.95;97742.41;4225876;27;20050;-72
2023/01/08 01:55:37;;;;;;;9.77;5.75;;;;;;;6.47;95.85;97740.00;4220470;27;20044;-72
2023/01/08 01:57:38;;;;;;;6.30;5.05;;;;;;;6.46;95.61;97741.16;4219497;27;20201;-72
2023/01/08 01:59:40;;;;;;;6.80;5.15;;;;;;;6.41;95.70;97736.75;4223872;27;20063;-72
2023/01/08 02:01:41;;;;;;;6.50;4.75;;;;;;;6.43;96.06;97750.91;4221426;27;20047;-73
2023/01/08 02:03:41;;;;;;;5.60;4.25;;;;;;;6.52;95.65;97736.13;4218752;27;20607;-72
2023/01/08 02:05:57;;;;;;;7.30;4.93;;;;;;;6.52;95.84;97731.44;4222988;27;20047;-72
2023/01/08 02:08:12;;;;;;;6.63;4.85;;;;;;;6.44;95.88;97730.53;4219093;27;20067;-72
2023/01/08 02:10:19;;;;;;;7.88;4.70;;;;;;;6.50;95.12;97747.50;4225500;27;20320;-72
2023/01/08 02:12:32;;;;;;;8.40;4.80;;;;;;;6.52;95.86;97747.13;4228436;27;20024;-72
2023/01/08 02:15:00;;;;;;;6.82;4.82;;;;;;;6.50;95.80;97741.22;4219507;27;20469;-72
2023/01/08 02:17:08;;;;;;;8.30;5.53;;;;;;;6.45;95.56;97756.03;4202200;27;20059;-72
2023/01/08 02:19:18;;;;;;;9.95;5.40;;;;;;;6.43;95.76;97750.91;4234861;27;20046;-72
2023/01/08 02:21:43;;;;;;;7.13;4.65;;;;;;;6.47;95.06;97754.53;4228063;27;20044;-72
2023/01/08 02:24:00;;;;;;;7.53;5.43;;;;;;;6.54;94.52;97758.53;4221529;27;20082;-72
2023/01/08 02:26:25;;;;;;;6.45;4.85;;;;;;;6.59;94.45;97753.53;4225195;27;20550;-72
2023/01/08 02:28:26;;;;;;;5.63;4.45;;;;;;;6.59;94.56;97744.50;4222455;27;20094;-72
2023/01/08 02:30:27;;;;;;;7.70;4.80;;;;;;;6.59;94.64;97749.97;4229678;27;20031;-72
2023/01/08 02:32:35;;;;;;;7.28;5.20;;;;;;;6.60;94.38;97744.13;4221216;27;20055;-73
2023/01/08 02:34:35;;;;;;;6.40;5.38;;;;;;;6.63;95.28;97756.34;4219356;27;20070;-72
2023/01/08 02:36:35;;;;;;;6.93;4.85;;;;;;;6.56;95.53;97747.97;4232309;27;20486;-72
2023/01/08 02:38:43;;;;;;;7.28;5.00;;;;;;;6.54;95.49;97748.34;4235335;27;20391;-72
2023/01/08 02:41:09;;;;;;;7.88;5.35;;;;;;;6.58;95.34;97749.19;4225777;27;20074;-72
2023/01/08 02:43:16;;;;;;;5.63;4.45;;;;;;;6.54;95.43;97731.88;4216320;27;20048;-72
2023/01/08 02:45:49;;;;;;;7.85;5.22;;;;;;;6.58;96.04;97737.41;4218937;27;20090;-72
2023/01/08 02:48:06;;;;;;;6.60;4.65;;;;;;;6.53;96.72;97730.25;4219070;27;20054;-73
2023/01/08 02:50:30;;;;;;;6.60;4.80;;;;;;;6.50;96.40;97710.97;4226556;27;20118;-72
2023/01/08 02:52:35;;;;;;;7.20;5.07;;;;;;;6.47;96.97;97716.06;4225778;27;20047;-72
2023/01/08 02:54:38;;;;;;;7.00;4.80;;;;;;;6.60;96.75;97729.59;4226213;27;20070;-72
2023/01/08 02:56:43;;;;;;;6.30;4.78;;;;;;;6.59;96.75;97719.75;4233131;27;20461;-72
2023/01/08 02:58:46;;;;;;;6.45;4.88;;;;;;;6.57;96.75;97709.13;4222847;27;20036;-72
2023/01/08 03:00:48;;;;;;;7.30;5.05;;;;;;;6.68;96.55;97701.81;4222484;27;20079;-72
2023/01/08 03:02:51;;;;;;;7.55;4.70;;;;;;;6.73;95.97;97707.00;4230619;27;20337;-72
2023/01/08 03:04:56;;;;;;;6.93;5.43;;;;;;;6.65;96.64;97707.28;4237783;27;20066;-72
2023/01/08 03:06:57;;;;;;;8.13;4.82;;;;;;;6.60;97.31;97699.34;4226642;27;20359;-72
2023/01/08 03:08:59;;;;;;;6.90;4.95;;;;;;;6.55;97.61;97686.72;4222654;27;20047;-73
2023/01/08 03:11:04;;;;;;;7.53;4.37;;;;;;;6.52;97.53;97697.66;4239060;27;20126;-72
2023/01/08 03:13:10;;;;;;;7.93;5.38;;;;;;;6.45;97.82;97698.34;4221997;27;20108;-72
2023/01/08 03:15:15;;;;;;;7.07;5.10;;;;;;;6.48;98.40;97692.91;4223488;27;20303;-72
2023/01/08 03:17:28;;;;;;;6.85;5.18;;;;;;;6.52;98.56;97690.19;4224926;27;20456;-72
2023/01/08 03:19:38;;;;;;;8.23;4.80;;;;;;;6.55;98.40;97691.44;4236901;27;20158;-72
2023/01/08 03:21:42;;;;;;;7.97;5.10;;;;;;;6.55;99.28;97696.94;4221960;27;20043;-72
2023/01/08 03:23:45;;;;;;;6.95;4.85;;;;;;;6.55;99.07;97692.22;4225932;27;20692;-72
2023/01/08 03:25:47;;;;;;;6.63;4.70;;;;;;;6.61;99.33;97693.47;4222493;27;20036;-72
2023/01/08 03:27:53;;;;;;;6.72;4.95;;;;;;;6.63;98.89;97684.88;4222114;27;20040;-72
2023/01/08 03:29:56;;;;;;;6.63;4.78;;;;;;;6.62;99.09;97697.00;4223123;27;20039;-72
2023/01/08 03:32:02;;;;;;;6.35;4.43;;;;;;;6.68;98.57;97693.56;4221429;27;20039;-72
2023/01/08 03:34:04;;;;;;;6.80;4.68;;;;;;;6.70;99.20;97688.53;4235170;27;20043;-72
2023/01/08 03:36:07;;;;;;;9.63;5.00;;;;;;;6.71;99.08;97695.59;4228802;27;20152;-72
2023/01/08 03:38:12;;;;;;;;;;;;;;;6.80;98.46;97706.31;4237978;27;20111;-72
2023/01/08 03:40:18;;;;;;;6.43;4.50;;;;;;;6.85;97.65;97708.75;4234470;27;19916;-72
2023/01/08 03:42:20;;;;;;;6.50;4.78;;;;;;;6.85;98.36;97691.44;4225560;27;20059;-72
2023/01/08 03:44:20;;;;;;;6.32;4.53;;;;;;;6.81;98.44;97685.91;4221388;27;20474;-72
2023/01/08 03:46:29;;;;;;;6.78;4.60;;;;;;;6.85;97.92;97686.75;4226867;27;20044;-72
2023/01/08 03:48:31;;;;;;;7.25;4.90;;;;;;;6.78;97.88;97681.13;4228706;27;20092;-72
2023/01/08 03:50:33;;;;;;;7.47;4.82;;;;;;;6.81;98.09;97665.88;4226882;27;20059;-72
2023/01/08 03:52:33;;;;;;;8.05;5.45;;;;;;;6.77;98.11;97676.81;4231470;27;20829;-72
2023/01/08 03:54:35;;;;;;;7.25;4.93;;;;;;;6.79;98.03;97660.75;4225963;27;20047;-72
2023/01/08 03:56:36;;;;;;;6.10;4.43;;;;;;;6.78;97.99;97664.66;4221610;27;20588;-72
2023/01/08 03:58:36;;;;;;;8.18;4.85;;;;;;;6.78;98.14;97672.91;4221175;27;20043;-72
2023/01/08 04:00:36;;;;;;;7.95;4.88;;;;;;;6.80;98.18;97656.84;4230798;27;20123;-72
2023/01/08 04:02:37;;;;;;;7.28;5.10;;;;;;;6.80;97.87;97664.28;4233681;27;20445;-72
2023/01/08 04:04:37;;;;;;;7.43;5.13;;;;;;;6.83;97.56;97655.28;4236144;27;20086;-72
2023/01/08 04:06:38;;;;;;;6.93;4.95;;;;;;;6.80;97.84;97659.59;4237841;27;20055;-72
2023/01/08 04:08:39;;;;;;;7.78;4.68;;;;;;;6.80;97.80;97651.34;4227336;27;20036;-72
2023/01/08 04:10:39;;;;;;;6.95;5.05;;;;;;;6.82;97.56;97660.00;4226379;27;20130;-72
2023/01/08 04:12:42;;;;;;;7.05;4.90;;;;;;;6.82;97.49;97660.00;4224604;27;20073;-72
2023/01/08 04:14:42;;;;;;;7.55;5.43;;;;;;;6.81;97.85;97668.63;4221360;27;20184;-72
2023/01/08 04:16:43;;;;;;;8.38;4.82;;;;;;;6.79;98.18;97662.72;4221642;27;20085;-72
2023/01/08 04:18:43;;;;;;;8.02;5.25;;;;;;;6.86;97.62;97657.28;4234275;27;20455;-72
2023/01/08 04:20:45;;;;;;;7.10;4.90;;;;;;;6.88;97.53;97657.72;4221273;27;20436;-72
2023/01/08 04:22:45;;;;;;;7.57;5.20;;;;;;;6.83;97.78;97652.53;4227621;27;20036;-72
2023/01/08 04:24:46;;;;;;;5.63;4.53;;;;;;;6.90;97.68;97645.19;4225129;27;20374;-72
2023/01/08 04:26:46;;;;;;;6.13;4.55;;;;;;;6.92;97.31;97650.31;4221373;27;20460;-72
2023/01/08 04:28:46;;;;;;;6.45;4.25;;;;;;;6.87;97.64;97648.69;4221579;27;20043;-72
2023/01/08 04:30:47;;;;;;;6.50;4.50;;;;;;;6.89;97.21;97651.06;4235856;27;20043;-72
2023/01/08 04:32:47;;;;;;;6.65;4.32;;;;;;;6.94;97.09;97648.75;4224122;27;20517;-72
2023/01/08 04:34:47;;;;;;;7.13;4.82;;;;;;;6.93;97.20;97638.13;4221041;27;20052;-72
2023/01/08 04:36:48;;;;;;;8.15;4.55;;;;;;;6.91;96.87;97638.50;4221156;27;20078;-72
2023/01/08 04:38:48;;;;;;;6.75;4.35;;;;;;;6.90;97.27;97636.13;4232046;27;20038;-72
2023/01/08 04:40:48;;;;;;;7.35;4.63;;;;;;;6.90;96.92;97638.88;4221265;27;20157;-72
2023/01/08 04:42:49;;;;;;;5.18;4.05;;;;;;;6.90;96.85;97627.88;4226448;27;20047;-72
2023/01/08 04:44:49;;;;;;;6.80;4.85;;;;;;;6.86;97.21;97624.28;4221468;27;20360;-72
2023/01/08 04:46:49;;;;;;;5.43;4.18;;;;;;;6.86;97.11;97633.31;4230190;27;20085;-72
2023/01/08 04:48:50;;;;;;;6.93;4.90;;;;;;;6.88;96.64;97630.22;4221111;27;20040;-72
2023/01/08 04:50:50;;;;;;;6.82;4.30;;;;;;;6.88;97.09;97619.22;4232814;27;20074;-72
2023/01/08 04:52:51;;;;;;;6.47;4.38;;;;;;;6.85;96.86;97622.72;4224608;27;20201;-72
2023/01/08 04:54:51;;;;;;;5.85;4.43;;;;;;;6.89;96.77;97618.84;4227238;27;20027;-72
2023/01/08 04:56:52;;;;;;;5.60;4.25;;;;;;;6.88;96.90;97613.72;4233491;27;20564;-72
2023/01/08 04:58:52;;;;;;;6.68;4.78;;;;;;;6.86;97.05;97621.53;4220865;27;20418;-72
2023/01/08 05:00:52;;;;;;;5.13;4.20;;;;;;;6.85;96.94;97620.75;4220846;27;21002;-72
2023/01/08 05:02:53;;;;;;;5.53;4.00;;;;;;;6.88;96.97;97613.72;4219928;27;20166;-72
2023/01/08 05:04:54;;;;;;;6.78;4.95;;;;;;;6.84;97.19;97624.66;4220520;27;20169;-72
2023/01/08 05:06:54;;;;;;;6.10;4.38;;;;;;;6.83;97.01;97634.09;4226042;27;20047;-72
2023/01/08 05:08:55;;;;;;;8.57;4.20;;;;;;;6.86;96.84;97635.28;4220793;27;20039;-72
2023/01/08 05:10:58;;;;;;;6.20;4.20;;;;;;;6.83;97.02;97636.84;4227849;27;20051;-72
2023/01/08 05:12:59;;;;;;;5.82;4.35;;;;;;;6.79;97.40;97632.47;4223138;27;20045;-72
2023/01/08 05:14:59;;;;;;;6.20;4.60;;;;;;;6.80;96.83;97637.59;4220716;27;20043;-72
2023/01/08 05:17:00;;;;;;;6.97;4.93;;;;;;;6.80;97.20;97636.81;4224400;27;20042;-72
2023/01/08 05:19:00;;;;;;;6.38;4.38;;;;;;;6.84;97.12;97634.88;4225252;27;20158;-72
2023/01/08 05:21:02;;;;;;;5.80;4.43;;;;;;;6.82;96.92;97626.22;4235685;27;20382;-72
2023/01/08 05:23:03;;;;;;;7.40;5.07;;;;;;;6.83;97.02;97628.59;4229758;27;20196;-72
2023/01/08 05:25:03;;;;;;;10.20;5.03;;;;;;;6.81;96.41;97617.19;4234063;27;20113;-72
2023/01/08 05:27:04;;;;;;;6.43;4.63;;;;;;;6.84;96.58;97610.13;4223693;27;20368;-72
2023/01/08 05:29:04;;;;;;;5.47;4.38;;;;;;;6.85;96.79;97612.50;4223035;27;20046;-72
2023/01/08 05:31:04;;;;;;;5.97;4.80;;;;;;;6.85;96.54;97607.00;4225844;27;20515;-72
2023/01/08 05:33:05;;;;;;;5.97;4.18;;;;;;;6.86;96.24;97607.78;4231031;27;20047;-72
2023/01/08 05:35:06;;;;;;;6.55;4.38;;;;;;;6.86;96.59;97610.53;4236368;27;20043;-72
2023/01/08 05:37:06;;;;;;;8.02;4.70;;;;;;;6.90;96.81;97609.44;4223264;27;20096;-72
2023/01/08 05:39:06;;;;;;;6.93;4.75;;;;;;;6.88;97.29;97613.72;4222951;27;20049;-72
2023/01/08 05:41:07;;;;;;;7.78;4.80;;;;;;;6.92;97.02;97606.28;4229479;27;20536;-72
2023/01/08 05:43:08;;;;;;;5.30;4.13;;;;;;;6.88;97.76;97619.22;4224898;27;20047;-72
2023/01/08 05:45:08;;;;;;;6.07;4.65;;;;;;;6.83;98.38;97630.53;4235661;27;20382;-72
2023/01/08 05:47:09;;;;;;;5.85;4.63;;;;;;;6.81;98.51;97630.94;4228514;27;20040;-73
2023/01/08 05:49:09;;;;;;;7.78;4.88;;;;;;;6.82;98.26;97635.25;4224082;27;20054;-72
2023/01/08 05:51:09;;;;;;;6.70;4.50;;;;;;;6.76;99.03;97636.75;4224710;27;20057;-72
2023/01/08 05:53:11;;;;;;;5.30;4.30;;;;;;;6.77;98.92;97643.81;4219120;27;20044;-73
2023/01/08 05:55:11;;;;;;;6.78;4.40;;;;;;;6.78;98.99;97648.16;4219634;27;20044;-72
2023/01/08 05:57:11;;;;;;;6.32;4.97;;;;;;;6.75;99.44;97637.91;4219751;27;20721;-72
2023/01/08 05:59:12;;;;;;;6.63;4.70;;;;;;;6.78;99.05;97639.91;4221008;27;20031;-72
2023/01/08 06:01:16;;;;;;;5.90;4.50;;;;;;;6.79;99.49;97632.47;4229418;27;20492;-72
2023/01/08 06:03:22;;;;;;;7.55;4.63;;;;;;;6.78;99.10;97639.91;4221374;27;20514;-72
2023/01/08 06:05:22;;;;;;;7.10;5.10;;;;;;;6.73;99.70;97629.25;4220230;27;20348;-72
2023/01/08 06:07:22;;;;;;;6.57;4.68;;;;;;;6.73;99.58;97630.03;4219949;27;20050;-72
2023/01/08 06:09:23;;;;;;;6.22;5.10;;;;;;;6.74;100.00;97625.34;4225231;27;20481;-72
2023/01/08 06:11:23;;;;;;;6.28;4.75;;;;;;;6.74;99.73;97622.59;4222006;27;20475;-72
2023/01/08 06:13:23;;;;;;;7.97;5.10;;;;;;;6.77;99.44;97635.56;4218714;27;20063;-72
2023/01/08 06:15:24;;;;;;;6.97;4.80;;;;;;;6.76;99.71;97634.00;4219794;27;20059;-72
2023/01/08 06:17:24;;;;;;;9.30;5.00;;;;;;;6.78;99.93;97617.91;4220005;27;20043;-72
2023/01/08 06:19:25;;;;;;;6.10;4.72;;;;;;;6.79;100.00;97624.22;4219609;27;20082;-72
2023/01/08 06:21:25;;;;;;;8.10;5.18;;;;;;;6.79;99.78;97621.47;4219953;27;20484;-72
2023/01/08 06:23:25;;;;;;;6.75;4.78;;;;;;;6.80;99.70;97606.56;4221867;27;20126;-72
2023/01/08 06:25:27;;;;;;;8.60;4.93;;;;;;;6.82;100.00;97605.00;4219079;27;20096;-73
2023/01/08 06:27:27;;;;;;;8.70;5.30;;;;;;;6.81;100.00;97602.63;4219436;27;20044;-72
2023/01/08 06:29:28;;;;;;;7.40;5.43;;;;;;;6.78;99.75;97593.16;4224885;27;20242;-72
2023/01/08 06:31:28;;;;;;;9.07;4.85;;;;;;;6.75;100.00;97571.94;4225383;27;20075;-73
2023/01/08 06:33:29;;;;;;;7.53;5.22;;;;;;;6.74;100.00;97579.38;4224547;27;20044;-73
2023/01/08 06:35:29;;;;;;;6.47;4.97;;;;;;;6.73;100.00;97588.81;4234891;27;20156;-72
2023/01/08 06:37:30;;;;;;;7.45;4.70;;;;;;;6.71;100.00;97591.16;4240404;27;20133;-73
2023/01/08 06:39:30;;;;;;;6.72;5.28;;;;;;;6.73;100.00;97588.81;4232540;27;20051;-72
2023/01/08 06:41:30;;;;;;;5.88;4.55;;;;;;;6.72;100.00;97578.19;4229004;27;20043;-72
2023/01/08 06:43:32;;;;;;;6.00;4.78;;;;;;;6.68;100.00;97582.84;4238440;27;20047;-72
2023/01/08 06:45:33;;;;;;;6.57;5.23;;;;;;;6.65;100.00;97578.88;4241048;27;20068;-73
2023/01/08 06:47:33;;;;;;;7.85;4.82;;;;;;;6.65;100.00;97595.38;4233612;27;20150;-73
2023/01/08 06:49:33;;;;;;;8.40;5.35;;;;;;;6.57;100.00;97595.66;4229241;27;20490;-73
2023/01/08 06:51:35;;;;;;;8.88;5.18;;;;;;;6.53;100.00;97597.56;4225171;27;20040;-73
2023/01/08 06:53:35;;;;;;;7.75;5.65;;;;;;;6.49;100.00;97603.00;4223682;27;20046;-73
2023/01/08 06:55:37;;;;;;;8.02;5.10;;;;;;;6.48;100.00;97601.44;4231317;27;20429;-73
2023/01/08 06:57:40;;;;;;;7.43;5.25;;;;;;;6.42;100.00;97591.94;4224472;27;20369;-73
2023/01/08 06:59:40;;;;;;;10.05;6.63;;;;;;;6.37;100.00;97589.50;4227365;27;20391;-73
2023/01/08 07:01:41;;;;;;;7.80;5.53;;;;;;;6.41;100.00;97585.63;4230143;27;20035;-73
2023/01/08 07:03:41;;;;;;;7.82;5.47;;;;;;;6.44;100.00;97586.84;4221251;27;20750;-73
2023/01/08 07:05:42;;;;;;;8.73;5.60;;;;;;;6.41;100.00;97585.63;4223616;27;20063;-73
2023/01/08 07:07:42;;;;;;;7.35;5.07;;;;;;;6.39;100.00;97587.97;4230242;27;20102;-72
2023/01/08 07:09:43;;;;;;;7.43;4.40;;;;;;;6.42;100.00;97589.19;4226894;27;20080;-73
2023/01/08 07:11:43;;;;;;;6.57;4.72;;;;;;;6.37;100.00;97592.25;4230914;27;20188;-73
2023/01/08 07:13:44;;;;;;;7.10;5.20;;;;;;;6.37;100.00;97597.72;4228068;27;20035;-73
2023/01/08 07:15:44;;;;;;;6.35;4.78;;;;;;;6.36;100.00;97598.91;4227303;27;20111;-73
2023/01/08 07:17:44;;;;;;;6.20;4.55;;;;;;;6.37;100.00;97597.72;4231789;27;20039;-72
2023/01/08 07:19:45;;;;;;;6.68;4.70;;;;;;;6.34;100.00;97602.03;4230011;27;20050;-73
2023/01/08 07:21:45;;;;;;;7.55;4.97;;;;;;;6.34;100.00;97607.50;4226042;27;20122;-73
2023/01/08 07:23:47;;;;;;;7.78;5.03;;;;;;;6.42;100.00;97611.94;4226126;27;20517;-73
2023/01/08 07:25:48;;;;;;;6.07;4.53;;;;;;;6.40;100.00;97605.25;4226400;27;20028;-73
2023/01/08 07:27:48;;;;;;;8.15;4.95;;;;;;;6.38;100.00;97602.09;4228196;27;20174;-73
2023/01/08 07:29:49;;;;;;;7.15;4.78;;;;;;;6.41;100.00;97604.09;4222981;27;20063;-73
2023/01/08 07:31:49;;;;;;;6.88;4.53;;;;;;;6.42;100.00;97611.94;4194041;27;20099;-73
2023/01/08 07:33:49;;;;;;;7.90;5.13;;;;;;;6.42;100.00;97605.66;4229812;27;20130;-73
2023/01/08 07:35:54;;;;;;;5.35;4.20;;;;;;;6.39;100.00;97604.47;4226314;27;20054;-73
2023/01/08 07:37:55;;;;;;;7.43;4.50;;;;;;;6.38;100.00;97602.88;4226772;27;20039;-73
2023/01/08 07:39:55;;;;;;;8.85;5.38;;;;;;;6.37;100.00;97608.72;4223773;27;20054;-73
2023/01/08 07:41:55;;;;;;;8.35;5.75;;;;;;;6.37;100.00;97609.53;4225044;27;20462;-73
2023/01/08 07:43:56;;;;;;;7.55;5.82;;;;;;;6.35;100.00;97609.09;4226399;27;20198;-73
2023/01/08 07:45:56;;;;;;;8.38;5.78;;;;;;;6.33;100.00;97610.63;4225246;27;20052;-73
2023/01/08 07:47:57;;;;;;;8.00;5.57;;;;;;;6.33;100.00;97610.63;4221515;27;20039;-73
2023/01/08 07:49:58;;;;;;;12.60;8.48;;;;;;;6.27;100.00;97610.16;4227444;27;20036;-73
2023/01/08 07:51:58;;;;;;;12.18;6.85;;;;;;;6.23;100.00;97605.78;4221106;27;20039;-73
2023/01/08 07:53:58;;;;;;;13.90;8.00;;;;;;;6.22;100.00;97604.22;4222312;27;20138;-73
2023/01/08 07:56:04;;;;;;;13.55;6.00;;;;;;;6.23;100.00;97597.56;4225025;27;20085;-73
2023/01/08 07:58:09;;;;;;;9.43;6.63;;;;;;;6.28;100.00;97597.22;4228452;27;20203;-73
2023/01/08 08:00:10;;;;;;;17.25;4.45;;;;;;;6.34;100.00;97604.78;4220330;27;20038;-73
2023/01/08 08:02:10;;;;;;;9.55;5.30;;;;;;;6.45;100.00;97604.91;4222752;27;20039;-73
2023/01/08 08:04:14;;;;;;;7.20;3.90;;;;;;;6.50;100.00;97593.59;4217671;27;20043;-73
2023/01/08 08:06:14;;;;;;;5.70;3.63;;;;;;;6.58;100.00;97586.25;4223965;27;20074;-73
2023/01/08 08:08:15;;;;;;;5.53;3.67;;;;;;;6.63;100.00;97580.44;4222134;27;20111;-73
2023/01/08 08:10:16;;;;;;;3.53;2.80;;;;;;;6.65;100.00;97580.84;4224989;27;20043;-73
2023/01/08 08:12:16;;;;;;;3.85;2.88;;;;;;;6.66;100.00;97576.94;4234902;27;20070;-73
2023/01/08 08:14:16;;;;;;;3.90;2.50;;;;;;;6.70;100.00;97558.50;4222646;27;20356;-73
2023/01/08 08:16:17;;;;;;;4.78;3.50;;;;;;;6.72;100.00;97567.97;4225267;27;20024;-73
2023/01/08 08:18:17;;;;;;;3.47;2.20;;;;;;;6.79;100.00;97574.75;4226397;27;20205;-73
2023/01/08 08:20:18;;;;;;;2.55;1.77;;;;;;;6.76;100.00;97563.31;4220663;27;20031;-73
2023/01/08 08:22:18;;;;;;;2.35;1.77;;;;;;;6.80;100.00;97544.13;4220835;27;20088;-73
2023/01/08 08:24:18;;;;;;;1.88;1.50;;;;;;;6.83;100.00;97548.84;4220335;27;20114;-73
2023/01/08 08:26:19;;;;;;;1.80;1.58;;;;;;;6.92;100.00;97541.09;4232804;27;20034;-73
2023/01/08 08:28:20;;;;;;;2.17;1.52;;;;;;;6.96;100.00;97538.41;4226402;27;20032;-73
2023/01/08 08:30:20;;;;;;;1.65;1.15;;;;;;;7.02;100.00;97532.16;4226536;27;20042;-73
2023/01/08 08:32:20;;;;;;;2.22;1.45;;;;;;;7.03;99.66;97531.00;4225122;27;20047;-73
2023/01/08 08:34:21;;;;;;;2.67;1.52;;;;;;;7.02;100.00;97532.16;4225179;27;20067;-73
2023/01/08 08:36:27;;;;;;;2.03;1.50;;;;;;;7.03;99.91;97525.50;4225127;27;20097;-73
2023/01/08 08:38:27;;;;;;;2.25;1.60;;;;;;;7.09;99.71;97519.66;4223347;27;20584;-73
2023/01/08 08:40:28;;;;;;;1.65;1.33;;;;;;;7.08;100.00;97523.56;4222024;27;20039;-72
2023/01/08 08:42:28;;;;;;;2.83;1.50;;;;;;;7.05;99.98;97527.88;4222706;27;20509;-72
2023/01/08 08:44:28;;;;;;;1.80;1.40;;;;;;;7.05;100.00;97525.13;4225136;27;20099;-73
2023/01/08 08:46:29;;;;;;;6.63;1.90;;;;;;;7.17;99.59;97524.84;4226398;27;20040;-73
2023/01/08 08:48:29;;;;;;;1.95;1.40;;;;;;;7.22;99.79;97534.72;4225769;27;20044;-73
2023/01/08 08:50:29;;;;;;;1.83;1.30;;;;;;;7.20;99.97;97537.88;4224661;27;20044;-73
2023/01/08 08:52:31;;;;;;;1.88;1.50;;;;;;;7.17;100.00;97533.09;4220724;27;20043;-73
2023/01/08 08:54:31;;;;;;;2.38;1.80;;;;;;;7.12;99.83;97533.47;4224675;27;20441;-73
2023/01/08 08:56:32;;;;;;;2.30;1.60;;;;;;;7.10;100.00;97535.78;4220144;27;20039;-73
2023/01/08 08:58:32;;;;;;;3.08;1.98;;;;;;;7.07;100.00;97535.75;4222536;27;20050;-73
2023/01/08 09:00:33;;;;;;;2.08;1.50;;;;;;;7.03;100.00;97542.00;4225329;27;20096;-73
2023/01/08 09:02:33;;;;;;;4.20;1.90;;;;;;;7.00;100.00;97541.97;4226376;27;20415;-73
2023/01/08 09:04:33;;;;;;;3.38;1.90;;;;;;;7.00;100.00;97542.75;4223516;27;20043;-73
2023/01/08 09:06:34;;;;;;;3.20;1.90;;;;;;;6.98;100.00;97531.34;4225064;27;20039;-73
2023/01/08 09:08:35;;;;;;;3.20;2.03;;;;;;;7.02;100.00;97548.66;4222836;27;20058;-73
2023/01/08 09:10:41;;;;;;;2.00;1.77;;;;;;;7.01;100.00;97544.31;4225255;27;20068;-73
2023/01/08 09:12:41;;;;;;;3.67;2.22;;;;;;;7.02;100.00;97536.88;4222155;27;20412;-73
2023/01/08 09:14:41;;;;;;;4.28;2.50;;;;;;;7.02;100.00;97550.63;4223949;27;20047;-73
2023/01/08 09:16:42;;;;;;;3.63;2.40;;;;;;;6.98;100.00;97547.84;4226785;27;20144;-73
2023/01/08 09:18:43;;;;;;;2.90;2.35;;;;;;;6.97;100.00;97556.47;4222115;27;20122;-73
2023/01/08 09:20:43;;;;;;;2.70;1.77;;;;;;;7.03;100.00;97569.53;4227919;27;20045;-73
2023/01/08 09:22:44;;;;;;;2.22;1.85;;;;;;;7.07;100.00;97557.75;4224527;27;20031;-73
2023/01/08 09:24:44;;;;;;;2.72;1.75;;;;;;;7.09;100.00;97555.41;4226478;27;20032;-73
2023/01/08 09:26:44;;;;;;;2.72;1.98;;;;;;;7.12;100.00;97560.97;4223355;27;20112;-73
2023/01/08 09:28:45;;;;;;;4.60;2.17;;;;;;;7.10;100.00;97568.78;4221854;27;20122;-73
2023/01/08 09:30:45;;;;;;;2.33;1.98;;;;;;;7.10;100.00;97571.53;4220081;27;20471;-73
2023/01/08 09:32:45;;;;;;;2.67;1.73;;;;;;;7.11;100.00;97577.81;4218891;27;20419;-73
2023/01/08 09:34:46;;;;;;;2.53;1.95;;;;;;;7.12;100.00;97558.22;4224810;27;20039;-73
2023/01/08 09:36:46;;;;;;;2.25;1.63;;;;;;;7.15;100.00;97573.94;4223290;27;20051;-73
2023/01/08 09:38:46;;;;;;;3.10;2.03;;;;;;;7.11;100.00;97569.56;4222043;27;20043;-73